Time;durP1;ratioP1;P1;durP2;ratioP2;P2;SDS_P1;SDS_P2;PMS_P1;PMS_P2;Temp;Humidity;BMP_temperature;BMP_pressure;BME280_temperature;BME280_humidity;BME280_pressure;Samples;Min_cycle;Max_cycle;Signal;HPM_P1;HPM_P2
2024/01/17 00:00:45;;;;;;;0.70;0.70;;;;;;;-4.11;100.00;100099.03;5094913;28;20028;-58
2024/01/17 00:03:10;;;;;;;0.60;0.60;;;;;;;-4.09;100.00;100087.44;5094136;28;20051;-58
2024/01/17 00:05:35;;;;;;;0.70;0.70;;;;;;;-4.13;100.00;100083.81;5094683;28;20024;-58
2024/01/17 00:08:01;;;;;;;0.70;0.70;;;;;;;-4.14;100.00;100078.66;5094857;28;20034;-58
2024/01/17 00:10:26;;;;;;;0.63;0.63;;;;;;;-4.15;100.00;100071.88;5093910;28;20051;-58
2024/01/17 00:12:52;;;;;;;0.70;0.70;;;;;;;-4.19;100.00;100063.22;5094628;28;20092;-58
2024/01/17 00:15:20;;;;;;;0.70;0.70;;;;;;;-4.22;100.00;100072.16;5094934;28;20028;-58
2024/01/17 00:17:48;;;;;;;0.60;0.60;;;;;;;-4.24;100.00;100068.66;5094047;28;20081;-58
2024/01/17 00:20:14;;;;;;;0.60;0.60;;;;;;;-4.25;100.00;100062.75;5094202;28;20031;-58
2024/01/17 00:22:40;;;;;;;0.70;0.70;;;;;;;-4.27;100.00;100060.88;5093889;28;20027;-58
2024/01/17 00:25:08;;;;;;;0.68;0.68;;;;;;;-4.28;100.00;100054.13;5094309;28;20082;-58
2024/01/17 00:27:35;;;;;;;0.70;0.70;;;;;;;-4.27;100.00;100050.81;5094004;28;20035;-58
2024/01/17 00:30:00;;;;;;;0.70;0.70;;;;;;;-4.21;100.00;100038.69;5093854;28;20032;-58
2024/01/17 00:32:26;;;;;;;0.65;0.65;;;;;;;-4.34;100.00;100030.25;5093887;28;20032;-58
2024/01/17 00:34:51;;;;;;;0.70;0.70;;;;;;;-4.31;100.00;100029.59;5094372;28;20024;-58
2024/01/17 00:37:17;;;;;;;0.60;0.60;;;;;;;-4.33;100.00;100021.91;5093409;28;20032;-58
2024/01/17 00:39:42;;;;;;;0.60;0.60;;;;;;;-4.36;100.00;100016.66;5093712;28;20166;-58
2024/01/17 00:42:08;;;;;;;0.68;0.68;;;;;;;-4.29;100.00;100018.00;5094093;28;20044;-58
2024/01/17 00:44:33;;;;;;;0.60;0.60;;;;;;;-4.39;100.00;100016.44;5093528;28;20042;-58
2024/01/17 00:46:59;;;;;;;0.70;0.70;;;;;;;-4.34;100.00;100006.72;5093957;28;20024;-58
2024/01/17 00:49:25;;;;;;;0.68;0.68;;;;;;;-4.46;100.00;99996.59;5093721;28;20032;-58
2024/01/17 00:51:50;;;;;;;0.60;0.60;;;;;;;-4.47;100.00;99987.31;5093288;28;20491;-58
2024/01/17 00:54:15;;;;;;;0.60;0.60;;;;;;;-4.49;100.00;99986.31;5093154;28;20024;-58
2024/01/17 00:56:41;;;;;;;0.60;0.60;;;;;;;-4.49;100.00;99982.16;5093696;28;20043;-58
2024/01/17 00:59:06;;;;;;;0.60;0.60;;;;;;;-4.51;100.00;99970.22;5093419;28;20028;-58
2024/01/17 01:01:31;;;;;;;0.70;0.70;;;;;;;-4.50;100.00;99970.34;5093294;28;20129;-58
2024/01/17 01:03:57;;;;;;;0.70;0.70;;;;;;;-4.43;100.00;99968.28;5093648;28;20460;-58
2024/01/17 01:06:23;;;;;;;0.60;0.60;;;;;;;-4.47;100.00;99962.16;5092782;28;20464;-58
2024/01/17 01:08:48;;;;;;;0.60;0.60;;;;;;;-4.40;100.00;99969.41;5093296;28;20032;-58
2024/01/17 01:11:13;;;;;;;0.70;0.70;;;;;;;-4.47;100.00;99968.06;5093386;28;20107;-58
2024/01/17 01:13:39;;;;;;;0.80;0.80;;;;;;;-4.39;100.00;99958.59;5093408;28;20028;-58
2024/01/17 01:16:04;;;;;;;0.60;0.60;;;;;;;-4.47;100.00;99963.03;5093404;28;20020;-58
2024/01/17 01:18:30;;;;;;;0.70;0.70;;;;;;;-4.48;100.00;99960.38;5093324;28;20385;-58
2024/01/17 01:20:57;;;;;;;0.70;0.70;;;;;;;-4.47;100.00;99959.63;5092922;28;20031;-58
2024/01/17 01:23:24;;;;;;;0.60;0.60;;;;;;;-4.52;100.00;99954.28;5092649;28;20020;-58
2024/01/17 01:25:50;;;;;;;0.70;0.70;;;;;;;-4.52;100.00;99959.31;5093668;28;20073;-58
2024/01/17 01:28:16;;;;;;;0.80;0.80;;;;;;;-4.53;100.00;99950.00;5092438;28;20035;-58
2024/01/17 01:30:41;;;;;;;0.60;0.60;;;;;;;-4.43;100.00;99953.22;5093172;28;20027;-58
2024/01/17 01:33:06;;;;;;;0.60;0.60;;;;;;;-4.49;100.00;99946.94;5092877;28;20038;-58
2024/01/17 01:35:32;;;;;;;0.68;0.68;;;;;;;-4.42;100.00;99945.75;5092643;28;20489;-58
2024/01/17 01:37:57;;;;;;;0.75;0.75;;;;;;;-4.49;100.00;99938.53;5093306;28;20039;-58
2024/01/17 01:40:22;;;;;;;0.70;0.70;;;;;;;-4.50;100.00;99946.84;5092272;28;20016;-57
2024/01/17 01:42:48;;;;;;;0.68;0.68;;;;;;;-4.42;100.00;99950.78;5092466;28;20444;-58
2024/01/17 01:45:13;;;;;;;0.70;0.70;;;;;;;-4.55;100.00;99943.97;5092651;28;20032;-57
2024/01/17 01:47:38;;;;;;;0.80;0.80;;;;;;;-4.54;100.00;99944.88;5092521;28;20104;-57
2024/01/17 01:50:05;;;;;;;0.70;0.70;;;;;;;-4.46;100.00;99946.31;5092774;28;20028;-57
2024/01/17 01:52:33;;;;;;;0.70;0.70;;;;;;;-4.58;100.00;99950.41;5091947;28;20028;-57
2024/01/17 01:54:58;;;;;;;;;;;;;;;-4.49;100.00;99938.53;5092892;28;20020;-58
2024/01/17 01:57:24;;;;;;;0.70;0.70;;;;;;;-4.67;100.00;99943.94;5092470;28;19970;-58
2024/01/17 01:59:50;;;;;;;0.70;0.70;;;;;;;-4.64;100.00;99944.16;5092980;28;20055;-57
2024/01/17 02:02:15;;;;;;;0.60;0.60;;;;;;;-4.69;100.00;99932.00;5092010;28;20397;-57
2024/01/17 02:04:42;;;;;;;0.80;0.80;;;;;;;-4.60;100.00;99929.31;5092461;28;20020;-58
2024/01/17 02:07:11;;;;;;;0.60;0.60;;;;;;;-4.78;100.00;99931.31;5092675;28;20069;-58
2024/01/17 02:09:36;;;;;;;0.70;0.70;;;;;;;-4.81;100.00;99920.25;5092379;28;20035;-58
2024/01/17 02:12:02;;;;;;;0.70;0.70;;;;;;;-4.85;100.00;99919.94;5092474;28;20028;-57
2024/01/17 02:14:28;;;;;;;0.60;0.60;;;;;;;-4.76;100.00;99910.56;5092549;28;20028;-58
2024/01/17 02:16:54;;;;;;;0.63;0.63;;;;;;;-4.89;100.00;99900.31;5092219;28;20036;-57
2024/01/17 02:19:21;;;;;;;0.60;0.60;;;;;;;-4.90;100.00;99903.63;5092167;28;20034;-57
2024/01/17 02:21:46;;;;;;;0.60;0.60;;;;;;;-4.91;100.00;99901.88;5092691;28;20161;-58
2024/01/17 02:24:18;;;;;;;0.73;0.73;;;;;;;-4.90;100.00;99903.63;5091761;28;20480;-58
2024/01/17 02:26:43;;;;;;;0.77;0.77;;;;;;;-4.93;100.00;99889.19;5092399;28;20051;-57
2024/01/17 02:29:10;;;;;;;0.70;0.70;;;;;;;-4.93;100.00;99889.19;5092499;28;20065;-58
2024/01/17 02:31:35;;;;;;;0.77;0.77;;;;;;;-4.94;100.00;99886.53;5091791;28;20021;-57
2024/01/17 02:34:01;;;;;;;0.60;0.60;;;;;;;-4.94;100.00;99881.50;5092251;28;20170;-58
2024/01/17 02:36:26;;;;;;;0.70;0.70;;;;;;;-4.96;100.00;99859.69;5092043;28;20492;-58
2024/01/17 02:38:52;;;;;;;0.60;0.60;;;;;;;-4.96;100.00;99864.72;5092291;28;20028;-57
2024/01/17 02:41:17;;;;;;;0.70;0.70;;;;;;;-4.93;100.00;99848.09;5092085;28;20618;-58
2024/01/17 02:43:43;;;;;;;0.65;0.65;;;;;;;-4.97;100.00;99845.34;5091851;28;20035;-58
2024/01/17 02:46:08;;;;;;;0.63;0.63;;;;;;;-4.93;100.00;99843.06;5092368;28;20053;-58
2024/01/17 02:48:33;;;;;;;0.60;0.60;;;;;;;-4.93;100.00;99840.53;5091931;28;20032;-58
2024/01/17 02:50:58;;;;;;;0.70;0.70;;;;;;;-4.91;100.00;99828.97;5091641;28;20020;-58
2024/01/17 02:53:24;;;;;;;0.70;0.70;;;;;;;-4.94;100.00;99828.75;5091793;28;20024;-57
2024/01/17 02:55:49;;;;;;;0.70;0.70;;;;;;;-4.84;100.00;99834.59;5092344;28;20059;-58
2024/01/17 02:58:14;;;;;;;0.70;0.70;;;;;;;-4.91;100.00;99831.50;5091602;28;20027;-58
2024/01/17 03:00:42;;;;;;;0.70;0.70;;;;;;;-4.87;100.00;99826.78;5092147;28;20040;-58
2024/01/17 03:03:09;;;;;;;0.68;0.68;;;;;;;-4.92;100.00;99824.72;5094069;28;20040;-58
2024/01/17 03:05:34;;;;;;;0.75;0.75;;;;;;;-4.90;100.00;99813.16;5095662;28;20024;-57
2024/01/17 03:08:00;;;;;;;0.70;0.70;;;;;;;-4.94;100.00;99811.16;5095876;28;20042;-57
2024/01/17 03:10:25;;;;;;;0.70;0.70;;;;;;;-4.84;100.00;99808.56;5095626;28;20028;-58
2024/01/17 03:12:50;;;;;;;0.70;0.70;;;;;;;-4.96;100.00;99806.91;5095241;28;20062;-58
2024/01/17 03:15:15;;;;;;;0.75;0.75;;;;;;;-5.12;100.00;99809.03;5095330;28;20024;-57
2024/01/17 03:17:41;;;;;;;0.70;0.70;;;;;;;-4.97;100.00;99810.19;5095906;28;20027;-58
2024/01/17 03:20:10;;;;;;;0.70;0.70;;;;;;;-5.27;100.00;99802.84;5095101;28;20103;-58
2024/01/17 03:22:36;;;;;;;0.80;0.80;;;;;;;-5.28;100.00;99799.47;5095560;28;20020;-58
2024/01/17 03:25:01;;;;;;;0.63;0.63;;;;;;;-5.31;100.00;99800.13;5095919;28;20020;-57
2024/01/17 03:27:27;;;;;;;0.80;0.80;;;;;;;-5.37;100.00;99793.72;5094664;28;20028;-58
2024/01/17 03:29:52;;;;;;;0.70;0.70;;;;;;;-5.25;100.00;99783.72;5095639;28;20027;-58
2024/01/17 03:32:17;;;;;;;0.60;0.60;;;;;;;-5.44;100.00;99787.38;5095248;28;20070;-58
2024/01/17 03:34:43;;;;;;;0.70;0.70;;;;;;;-5.47;100.00;99772.09;5094899;28;20028;-58
2024/01/17 03:37:08;;;;;;;0.70;0.70;;;;;;;-5.60;100.00;99766.88;5095614;28;20025;-57
2024/01/17 03:39:33;;;;;;;0.70;0.70;;;;;;;-5.55;100.00;99750.53;5094708;28;20398;-58
2024/01/17 03:41:59;;;;;;;0.70;0.70;;;;;;;-5.66;100.00;99740.56;5094992;28;20036;-58
2024/01/17 03:44:24;;;;;;;0.70;0.70;;;;;;;-5.66;100.00;99734.66;5095050;28;20030;-57
2024/01/17 03:46:50;;;;;;;0.70;0.70;;;;;;;-5.64;100.00;99730.66;5094606;28;20028;-58
2024/01/17 03:49:15;;;;;;;0.70;0.70;;;;;;;-5.53;100.00;99727.28;5094264;28;20391;-57
2024/01/17 03:51:40;;;;;;;0.80;0.80;;;;;;;-5.70;100.00;99725.16;5095167;28;20111;-57
2024/01/17 03:54:06;;;;;;;0.77;0.77;;;;;;;-5.55;100.00;99722.91;5094430;28;20031;-57
2024/01/17 03:56:31;;;;;;;0.70;0.70;;;;;;;-5.70;100.00;99708.47;5094647;28;20054;-57
2024/01/17 03:58:56;;;;;;;0.80;0.80;;;;;;;-5.88;100.00;99707.06;5095080;28;20119;-57
2024/01/17 04:01:21;;;;;;;0.70;0.70;;;;;;;-5.68;100.00;99701.94;5094197;28;20031;-57
2024/01/17 04:03:47;;;;;;;0.70;0.70;;;;;;;-5.68;100.00;99691.88;5094556;28;20027;-57
2024/01/17 04:06:12;;;;;;;0.68;0.68;;;;;;;-5.76;100.00;99687.06;5094574;28;20024;-58
2024/01/17 04:08:38;;;;;;;0.80;0.80;;;;;;;-5.74;100.00;99685.53;5094341;28;20032;-58
2024/01/17 04:11:03;;;;;;;0.70;0.70;;;;;;;-5.67;100.00;99680.19;5094678;28;20190;-58
2024/01/17 04:13:29;;;;;;;0.70;0.70;;;;;;;-5.59;100.00;99670.75;5094307;28;20140;-58
2024/01/17 04:15:54;;;;;;;0.68;0.68;;;;;;;-5.75;100.00;99658.69;5093326;28;20030;-57
2024/01/17 04:18:19;;;;;;;0.70;0.70;;;;;;;-5.77;100.00;99653.56;5093879;28;20054;-58
2024/01/17 04:20:45;;;;;;;0.70;0.70;;;;;;;-5.63;100.00;99642.00;5094688;28;20028;-57
2024/01/17 04:23:10;;;;;;;0.77;0.77;;;;;;;-5.75;100.00;99639.47;5093580;28;20078;-57
2024/01/17 04:25:36;;;;;;;0.70;0.70;;;;;;;-5.77;100.00;99625.97;5094416;28;20039;-57
2024/01/17 04:28:08;;;;;;;0.70;0.70;;;;;;;-5.77;100.00;99620.94;5094193;28;20023;-57
2024/01/17 04:30:33;;;;;;;0.70;0.70;;;;;;;-5.79;100.00;99617.44;5093605;28;20053;-57
2024/01/17 04:32:59;;;;;;;0.80;0.80;;;;;;;-5.72;100.00;99613.72;5093959;28;20051;-57
2024/01/17 04:35:24;;;;;;;0.70;0.70;;;;;;;-5.70;100.00;99610.56;5094007;28;20487;-57
2024/01/17 04:37:49;;;;;;;0.70;0.70;;;;;;;-5.60;100.00;99603.72;5093850;28;20050;-57
2024/01/17 04:40:15;;;;;;;0.73;0.73;;;;;;;-5.66;100.00;99589.94;5093330;28;20029;-57
2024/01/17 04:42:41;;;;;;;0.70;0.70;;;;;;;-5.67;100.00;99583.22;5094226;28;20052;-58
2024/01/17 04:45:07;;;;;;;0.80;0.80;;;;;;;-5.71;100.00;99580.34;5093567;28;20502;-57
2024/01/17 04:47:32;;;;;;;0.80;0.80;;;;;;;-5.72;100.00;99573.56;5093671;28;20031;-57
2024/01/17 04:49:58;;;;;;;0.80;0.80;;;;;;;-5.71;100.00;99571.19;5093525;28;20099;-57
2024/01/17 04:52:23;;;;;;;0.80;0.80;;;;;;;-5.60;100.00;99573.59;5093370;28;20376;-57
2024/01/17 04:54:49;;;;;;;0.70;0.70;;;;;;;-5.72;100.00;99574.47;5093883;28;20035;-57
2024/01/17 04:57:15;;;;;;;0.70;0.70;;;;;;;-5.72;100.00;99568.56;5093191;28;20118;-57
2024/01/17 04:59:40;;;;;;;0.70;0.70;;;;;;;-5.73;100.00;99569.31;5093429;28;20035;-57
2024/01/17 05:02:05;;;;;;;0.70;0.70;;;;;;;-5.73;100.00;99562.69;5093958;28;20471;-57
2024/01/17 05:04:31;;;;;;;0.70;0.70;;;;;;;-5.68;100.00;99551.34;5093006;28;20027;-57
2024/01/17 05:06:56;;;;;;;0.80;0.80;;;;;;;-5.70;100.00;99552.84;5093251;28;20028;-57
2024/01/17 05:09:22;;;;;;;0.70;0.70;;;;;;;-5.60;100.00;99551.00;5093269;28;20036;-57
2024/01/17 05:11:48;;;;;;;0.60;0.60;;;;;;;-5.59;100.00;99546.13;5093093;28;20020;-58
2024/01/17 05:14:14;;;;;;;0.63;0.63;;;;;;;-5.56;100.00;99555.50;5092662;28;20054;-57
2024/01/17 05:16:39;;;;;;;0.63;0.63;;;;;;;-5.68;100.00;99536.28;5093107;28;20027;-57
2024/01/17 05:19:05;;;;;;;0.70;0.70;;;;;;;-5.69;100.00;99529.50;5092965;28;20020;-57
2024/01/17 05:21:30;;;;;;;0.70;0.70;;;;;;;-5.59;100.00;99532.69;5092981;28;20039;-58
2024/01/17 05:23:56;;;;;;;0.70;0.70;;;;;;;-5.64;100.00;99523.19;5093379;28;20023;-57
2024/01/17 05:26:21;;;;;;;0.60;0.60;;;;;;;-5.55;100.00;99533.03;5092109;28;20028;-58
2024/01/17 05:28:46;;;;;;;0.70;0.70;;;;;;;-5.65;100.00;99521.44;5092981;28;20124;-57
2024/01/17 05:31:12;;;;;;;0.70;0.70;;;;;;;-5.66;100.00;99514.66;5092777;28;20057;-57
2024/01/17 05:33:37;;;;;;;0.70;0.70;;;;;;;-5.68;100.00;99513.69;5092605;28;20099;-57
2024/01/17 05:36:03;;;;;;;0.80;0.80;;;;;;;-5.69;100.00;99501.03;5093038;28;20043;-57
2024/01/17 05:38:28;;;;;;;0.77;0.77;;;;;;;-5.72;100.00;99499.19;5092838;28;20065;-57
2024/01/17 05:40:54;;;;;;;0.63;0.63;;;;;;;-5.70;100.00;99489.25;5092210;28;20364;-58
2024/01/17 05:43:19;;;;;;;0.70;0.70;;;;;;;-5.59;100.00;99495.03;5092351;28;20024;-57
2024/01/17 05:45:44;;;;;;;0.70;0.70;;;;;;;-5.58;100.00;99484.22;5092892;28;20097;-57
2024/01/17 05:48:10;;;;;;;0.80;0.80;;;;;;;-5.66;100.00;99484.53;5091745;28;20067;-58
2024/01/17 05:50:35;;;;;;;0.70;0.70;;;;;;;-5.56;100.00;99487.72;5093043;28;20034;-57
2024/01/17 05:53:01;;;;;;;0.68;0.68;;;;;;;-5.64;100.00;99472.13;5092922;28;20020;-57
2024/01/17 05:55:27;;;;;;;0.80;0.80;;;;;;;-5.55;100.00;99464.34;5091849;28;20024;-57
2024/01/17 05:57:53;;;;;;;0.70;0.70;;;;;;;-5.66;100.00;99463.59;5092699;28;20028;-57
2024/01/17 06:00:19;;;;;;;0.80;0.80;;;;;;;-5.67;100.00;99465.25;5091690;28;20020;-58
2024/01/17 06:02:44;;;;;;;0.70;0.70;;;;;;;-5.68;100.00;99465.13;5092470;28;20081;-57
2024/01/17 06:05:10;;;;;;;0.70;0.70;;;;;;;-5.68;100.00;99462.59;5092454;28;20032;-57
2024/01/17 06:07:36;;;;;;;0.80;0.80;;;;;;;-5.56;100.00;99458.47;5092101;28;20039;-57
2024/01/17 06:10:02;;;;;;;0.80;0.80;;;;;;;-5.64;100.00;99452.91;5092298;28;20020;-57
2024/01/17 06:12:28;;;;;;;0.60;0.60;;;;;;;-5.65;100.00;99451.16;5092124;28;20468;-57
2024/01/17 06:14:53;;;;;;;0.60;0.60;;;;;;;-5.63;100.00;99454.66;5092032;28;20034;-57
2024/01/17 06:17:19;;;;;;;0.65;0.65;;;;;;;-5.60;100.00;99445.56;5092542;28;20035;-57
2024/01/17 06:19:44;;;;;;;0.80;0.80;;;;;;;-5.59;100.00;99444.81;5092726;28;20532;-57
2024/01/17 06:22:10;;;;;;;0.70;0.70;;;;;;;-5.57;100.00;99445.81;5091733;28;20089;-57
2024/01/17 06:24:36;;;;;;;0.80;0.80;;;;;;;-5.58;100.00;99437.41;5092415;28;20043;-57
2024/01/17 06:27:02;;;;;;;0.70;0.70;;;;;;;-5.55;100.00;99431.72;5092628;28;20501;-57
2024/01/17 06:29:30;;;;;;;0.70;0.70;;;;;;;-5.54;100.00;99424.31;5091476;28;20024;-57
2024/01/17 06:31:56;;;;;;;0.60;0.60;;;;;;;-5.44;100.00;99420.78;5092444;28;20035;-57
2024/01/17 06:34:21;;;;;;;0.70;0.70;;;;;;;-5.50;100.00;99412.84;5092206;28;20020;-57
2024/01/17 06:36:46;;;;;;;0.70;0.70;;;;;;;-5.46;100.00;99420.69;5091732;28;20020;-57
2024/01/17 06:39:12;;;;;;;0.75;0.75;;;;;;;-5.48;100.00;99409.66;5095667;28;20052;-57
2024/01/17 06:41:37;;;;;;;0.70;0.70;;;;;;;-5.38;100.00;99411.19;5095915;28;20042;-57
2024/01/17 06:44:03;;;;;;;0.73;0.73;;;;;;;-5.35;100.00;99403.00;5095842;28;20069;-57
2024/01/17 06:46:28;;;;;;;0.70;0.70;;;;;;;-5.43;100.00;99394.94;5096064;28;20398;-57
2024/01/17 06:48:53;;;;;;;0.55;0.55;;;;;;;-5.41;100.00;99395.03;5096378;28;20024;-58
2024/01/17 06:51:18;;;;;;;0.68;0.68;;;;;;;-5.40;100.00;99401.81;5095461;28;20345;-58
2024/01/17 06:53:44;;;;;;;0.70;0.70;;;;;;;-5.39;100.00;99399.38;5096121;28;20035;-57
2024/01/17 06:56:09;;;;;;;0.70;0.70;;;;;;;-5.34;100.00;99403.09;5095943;28;20020;-57
2024/01/17 06:58:34;;;;;;;0.70;0.70;;;;;;;-5.26;100.00;99390.22;5095074;28;20028;-58
2024/01/17 07:01:00;;;;;;;0.70;0.70;;;;;;;-5.29;100.00;99391.72;5096186;28;20028;-57
2024/01/17 07:03:25;;;;;;;0.70;0.70;;;;;;;-5.24;100.00;99386.13;5095800;28;20016;-57
2024/01/17 07:05:50;;;;;;;0.70;0.70;;;;;;;-5.25;100.00;99379.38;5095280;28;20384;-57
2024/01/17 07:08:16;;;;;;;0.60;0.60;;;;;;;-5.16;100.00;99370.84;5095292;28;20036;-57
2024/01/17 07:10:41;;;;;;;0.70;0.70;;;;;;;-5.12;100.00;99375.28;5095238;28;20460;-57
2024/01/17 07:13:07;;;;;;;0.70;0.70;;;;;;;-5.08;100.00;99376.38;5095441;28;20080;-57
2024/01/17 07:15:32;;;;;;;0.70;0.70;;;;;;;-5.15;100.00;99369.19;5095533;28;20024;-57
2024/01/17 07:17:58;;;;;;;0.60;0.60;;;;;;;-5.17;100.00;99361.53;5094816;28;20353;-58
2024/01/17 07:20:24;;;;;;;0.60;0.60;;;;;;;-5.19;100.00;99349.66;5095239;28;20023;-57
2024/01/17 07:22:49;;;;;;;0.70;0.70;;;;;;;-5.15;100.00;99349.09;5095728;28;20093;-57
2024/01/17 07:25:15;;;;;;;0.75;0.75;;;;;;;-5.17;100.00;99335.56;5095012;28;20031;-57
2024/01/17 07:27:41;;;;;;;0.70;0.70;;;;;;;-5.13;100.00;99329.97;5095183;28;20035;-57
2024/01/17 07:30:07;;;;;;;0.70;0.70;;;;;;;-5.13;100.00;99329.97;5095300;28;20039;-57
2024/01/17 07:32:35;;;;;;;0.60;0.60;;;;;;;-5.12;100.00;99317.50;5094598;28;20028;-57
2024/01/17 07:35:00;;;;;;;0.80;0.80;;;;;;;-5.00;100.00;99321.63;5094939;28;20020;-57
2024/01/17 07:37:25;;;;;;;0.70;0.70;;;;;;;-5.08;100.00;99311.06;5095007;28;20036;-57
2024/01/17 07:39:51;;;;;;;0.60;0.60;;;;;;;-5.06;100.00;99307.03;5094763;28;20027;-58
2024/01/17 07:42:18;;;;;;;0.70;0.70;;;;;;;-5.06;100.00;99304.50;5094479;28;20559;-57
2024/01/17 07:44:44;;;;;;;0.60;0.60;;;;;;;-5.05;100.00;99302.84;5095146;28;20460;-57
2024/01/17 07:47:09;;;;;;;0.70;0.70;;;;;;;-5.04;100.00;99292.91;5094359;28;20081;-57
2024/01/17 07:49:38;;;;;;;0.77;0.77;;;;;;;-5.03;100.00;99292.13;5093705;28;20026;-57
2024/01/17 07:52:04;;;;;;;0.68;0.68;;;;;;;-4.92;100.00;99287.81;5094980;28;20069;-57
2024/01/17 07:54:30;;;;;;;0.73;0.73;;;;;;;-4.99;100.00;99284.03;5094044;28;20058;-57
2024/01/17 07:56:55;;;;;;;0.77;0.77;;;;;;;-4.87;100.00;99275.56;5094994;28;20039;-57
2024/01/17 07:59:20;;;;;;;0.70;0.70;;;;;;;-4.96;100.00;99276.72;5094825;28;20468;-57
2024/01/17 08:01:46;;;;;;;0.70;0.70;;;;;;;-4.85;100.00;99269.88;5094376;28;20020;-57
2024/01/17 08:04:11;;;;;;;0.63;0.63;;;;;;;-4.97;100.00;99264.03;5094785;28;20077;-57
2024/01/17 08:06:37;;;;;;;0.70;0.70;;;;;;;-4.94;100.00;99254.19;5094599;28;20065;-56
2024/01/17 08:09:02;;;;;;;0.70;0.70;;;;;;;-4.91;100.00;99254.38;5094209;28;20020;-57
2024/01/17 08:11:28;;;;;;;0.80;0.80;;;;;;;-4.90;100.00;99256.13;5093927;28;20032;-57
2024/01/17 08:13:53;;;;;;;0.60;0.60;;;;;;;-4.88;100.00;99253.72;5093996;28;20110;-57
2024/01/17 08:16:19;;;;;;;0.75;0.75;;;;;;;-4.87;100.00;99250.44;5094305;28;20067;-57
2024/01/17 08:18:44;;;;;;;0.70;0.70;;;;;;;-4.86;100.00;99247.16;5094695;28;20063;-57
2024/01/17 08:21:09;;;;;;;0.68;0.68;;;;;;;-4.83;100.00;99252.38;5093772;28;20388;-60
2024/01/17 08:23:36;;;;;;;0.70;0.70;;;;;;;-4.82;100.00;99244.06;5094339;28;20020;-57
2024/01/17 08:26:01;;;;;;;0.65;0.65;;;;;;;-4.68;100.00;99252.50;5094548;28;20506;-58
2024/01/17 08:28:26;;;;;;;0.60;0.60;;;;;;;-4.61;100.00;99249.59;5093414;28;20035;-57
2024/01/17 08:30:52;;;;;;;0.60;0.60;;;;;;;-4.60;100.00;99245.44;5094084;28;20024;-57
2024/01/17 08:33:17;;;;;;;0.70;0.70;;;;;;;-4.64;100.00;99234.31;5093618;28;20032;-57
2024/01/17 08:35:42;;;;;;;0.68;0.68;;;;;;;-4.48;100.00;99234.53;5093395;28;20028;-57
2024/01/17 08:38:08;;;;;;;0.70;0.70;;;;;;;-4.55;100.00;99223.97;5093936;28;20028;-57
2024/01/17 08:40:33;;;;;;;0.68;0.68;;;;;;;-4.57;100.00;99223.88;5093562;28;20524;-58
2024/01/17 08:42:59;;;;;;;0.68;0.68;;;;;;;-4.50;100.00;99210.06;5093239;28;20555;-57
2024/01/17 08:45:25;;;;;;;0.60;0.60;;;;;;;-4.50;100.00;99217.59;5093650;28;20028;-57
2024/01/17 08:47:50;;;;;;;0.70;0.70;;;;;;;-4.47;100.00;99211.13;5093776;28;20032;-57
2024/01/17 08:50:15;;;;;;;0.70;0.70;;;;;;;-4.33;100.00;99209.44;5092800;28;20392;-57
2024/01/17 08:52:40;;;;;;;0.57;0.57;;;;;;;-4.34;100.00;99195.16;5093472;28;20089;-57
2024/01/17 08:55:08;;;;;;;0.70;0.70;;;;;;;-4.47;100.00;99187.59;5093671;28;20489;-57
2024/01/17 08:57:34;;;;;;;;;;;;;;;-4.32;100.00;99191.06;5092575;28;20062;-57
2024/01/17 08:59:59;;;;;;;0.70;0.70;;;;;;;-4.30;100.00;99178.56;5093770;28;19911;-57
2024/01/17 09:02:25;;;;;;;0.60;0.60;;;;;;;-4.43;100.00;99176.94;5093444;28;20047;-56
2024/01/17 09:04:50;;;;;;;0.60;0.60;;;;;;;-4.37;100.00;99169.78;5093225;28;20115;-57
2024/01/17 09:07:15;;;;;;;0.68;0.68;;;;;;;-4.33;100.00;99170.84;5093232;28;20029;-57
2024/01/17 09:09:40;;;;;;;0.73;0.73;;;;;;;-4.18;100.00;99173.47;5093505;28;20377;-57
2024/01/17 09:12:06;;;;;;;0.63;0.63;;;;;;;-4.29;100.00;99167.75;5092740;28;20111;-57
2024/01/17 09:14:31;;;;;;;0.70;0.70;;;;;;;-4.31;100.00;99164.28;5093305;28;20414;-58
2024/01/17 09:16:56;;;;;;;0.80;0.80;;;;;;;-4.20;100.00;99158.25;5093632;28;20107;-58
2024/01/17 09:19:22;;;;;;;0.70;0.70;;;;;;;-4.03;100.00;99161.81;5092048;28;20092;-58
2024/01/17 09:21:52;;;;;;;0.70;0.70;;;;;;;-4.02;100.00;99157.63;5092509;28;20038;-57
2024/01/17 09:24:17;;;;;;;0.60;0.60;;;;;;;-3.85;100.00;99151.97;5092259;28;20020;-57
2024/01/17 09:26:43;;;;;;;0.60;0.60;;;;;;;-4.01;100.00;99145.13;5093099;28;20091;-57
2024/01/17 09:29:08;;;;;;;0.70;0.70;;;;;;;-4.02;100.00;99138.34;5092862;28;20017;-57
2024/01/17 09:31:33;;;;;;;0.60;0.60;;;;;;;-3.98;100.00;99132.75;5092455;28;20016;-57
2024/01/17 09:33:59;;;;;;;0.60;0.60;;;;;;;-3.90;100.00;99134.84;5093010;28;20440;-57
2024/01/17 09:36:24;;;;;;;0.60;0.60;;;;;;;-3.69;100.00;99146.19;5092614;28;20076;-57
2024/01/17 09:38:51;;;;;;;0.60;0.60;;;;;;;-3.62;100.00;99149.06;5092746;28;20024;-57
2024/01/17 09:41:16;;;;;;;0.60;0.60;;;;;;;-3.79;100.00;99143.91;5092133;28;20396;-57
2024/01/17 09:43:43;;;;;;;0.65;0.65;;;;;;;-3.77;100.00;99143.97;5093264;28;20031;-57
2024/01/17 09:46:12;;;;;;;0.60;0.60;;;;;;;-3.84;100.00;99127.66;5092377;28;20024;-57
2024/01/17 09:48:39;;;;;;;0.60;0.60;;;;;;;-3.85;100.00;99128.44;5092828;28;20042;-57
2024/01/17 09:51:04;;;;;;;0.70;0.70;;;;;;;-3.79;100.00;99131.31;5093015;28;20028;-57
2024/01/17 09:53:31;;;;;;;0.60;0.60;;;;;;;-3.67;100.00;99136.19;5092022;28;20035;-57
2024/01/17 09:56:01;;;;;;;0.70;0.70;;;;;;;-3.65;100.00;99134.66;5092673;28;20028;-57
2024/01/17 09:58:32;;;;;;;0.50;0.50;;;;;;;-3.59;100.00;99136.63;5092673;28;20024;-57
2024/01/17 10:00:59;;;;;;;0.60;0.60;;;;;;;-3.51;100.00;99126.22;5092340;28;20044;-57
2024/01/17 10:03:26;;;;;;;0.57;0.57;;;;;;;-3.52;100.00;99128.66;5092457;28;20054;-57
2024/01/17 10:05:54;;;;;;;0.80;0.80;;;;;;;-3.53;100.00;99119.38;5092867;28;20036;-58
2024/01/17 10:08:20;;;;;;;;;;;;;;;-3.36;100.00;99116.16;5092049;28;20105;-58
2024/01/17 10:10:45;;;;;;;0.60;0.60;;;;;;;-3.49;100.00;99108.69;5093467;28;19969;-57
2024/01/17 10:13:11;;;;;;;0.60;0.60;;;;;;;-3.41;100.00;99099.91;5091713;28;20110;-58
2024/01/17 10:15:44;;;;;;;0.60;0.60;;;;;;;-3.39;100.00;99110.94;5091939;28;20028;-57
2024/01/17 10:18:10;;;;;;;0.60;0.60;;;;;;;-3.19;100.00;99106.16;5092260;28;20039;-57
2024/01/17 10:20:36;;;;;;;0.60;0.60;;;;;;;-3.20;100.00;99104.41;5092286;28;20024;-57
2024/01/17 10:23:03;;;;;;;0.60;0.60;;;;;;;-3.22;100.00;99106.00;5092315;28;20145;-57
2024/01/17 10:25:36;;;;;;;0.70;0.70;;;;;;;-3.29;100.00;99098.88;5092486;28;20039;-57
2024/01/17 10:28:01;;;;;;;0.57;0.57;;;;;;;-3.17;100.00;99090.34;5092016;28;20087;-58
2024/01/17 10:30:27;;;;;;;0.60;0.60;;;;;;;-3.25;100.00;99078.97;5092153;28;20028;-57
2024/01/17 10:32:53;;;;;;;0.60;0.60;;;;;;;-3.22;100.00;99085.84;5092578;28;20008;-57
2024/01/17 10:35:23;;;;;;;0.50;0.50;;;;;;;-3.18;100.00;99083.56;5091722;28;20364;-58
2024/01/17 10:37:52;;;;;;;0.52;0.52;;;;;;;-3.23;100.00;99084.09;5092512;28;20129;-58
2024/01/17 10:40:18;;;;;;;0.50;0.50;;;;;;;-3.21;100.00;99087.59;5092092;28;20024;-56
2024/01/17 10:42:44;;;;;;;0.60;0.60;;;;;;;-3.22;100.00;99076.63;5091578;28;20047;-55
2024/01/17 10:45:23;;;;;;;0.60;0.60;;;;;;;-3.18;100.00;99081.03;5092238;28;20107;-56
2024/01/17 10:47:48;;;;;;;0.60;0.60;;;;;;;-3.12;100.00;99072.97;5092499;28;20026;-56
2024/01/17 10:50:15;;;;;;;0.70;0.70;;;;;;;-3.10;100.00;99066.34;5091491;28;20076;-56
2024/01/17 10:52:43;;;;;;;0.60;0.60;;;;;;;-3.01;100.00;99061.84;5092517;28;20058;-56
2024/01/17 10:55:10;;;;;;;0.70;0.70;;;;;;;-2.87;100.00;99054.13;5092559;28;20273;-56
2024/01/17 10:57:40;;;;;;;0.60;0.60;;;;;;;-3.03;100.00;99048.25;5091689;28;20028;-56
2024/01/17 11:00:11;;;;;;;0.60;0.60;;;;;;;-2.90;100.00;99043.91;5092470;28;20035;-56
2024/01/17 11:02:40;;;;;;;0.57;0.57;;;;;;;-2.93;100.00;99043.72;5092240;28;20028;-55
2024/01/17 11:05:10;;;;;;;0.50;0.50;;;;;;;-2.74;100.00;99036.34;5092170;28;20032;-56
2024/01/17 11:07:36;;;;;;;0.60;0.60;;;;;;;-2.90;100.00;99032.16;5092441;28;20040;-56
2024/01/17 11:10:03;;;;;;;0.60;0.60;;;;;;;-2.93;100.00;99018.50;5091845;28;20033;-56
2024/01/17 11:12:31;;;;;;;0.70;0.70;;;;;;;-2.85;100.00;99019.81;5091653;28;20468;-56
2024/01/17 11:14:59;;;;;;;0.57;0.57;;;;;;;-2.75;100.00;99023.66;5092154;28;20027;-56
2024/01/17 11:17:25;;;;;;;0.60;0.60;;;;;;;-2.72;100.00;99022.19;5091562;28;20035;-56